createdAt,value
2023-11-18T00:39:36.756Z,84.84
2023-11-18T00:46:59.383Z,84.58
2023-11-18T00:50:15.292Z,84.49
2023-11-18T00:54:14.750Z,84.63
2023-11-18T00:57:54.389Z,84.73
2023-11-18T01:01:14.712Z,84.84
2023-11-18T01:04:53.931Z,84.94
2023-11-18T01:08:33.759Z,85.08
2023-11-18T01:12:15.649Z,85.10
2023-11-18T02:14:07.253Z,87.09
2023-11-18T06:00:22.982Z,86.56
2023-11-18T06:02:57.834Z,86.56
2023-11-18T06:05:27.772Z,86.48
2023-11-18T06:07:56.671Z,86.33
2023-11-18T06:10:26.365Z,86.14
2023-11-18T06:12:56.392Z,85.94
2023-11-18T06:15:26.149Z,85.81
2023-11-18T06:17:57.362Z,85.74
2023-11-18T06:20:26.191Z,85.80
2023-11-18T06:22:54.943Z,85.63
2023-11-18T06:25:27.553Z,85.59
2023-11-18T06:27:56.353Z,85.55
2023-11-18T06:30:25.190Z,85.63
2023-11-18T06:32:53.931Z,85.61
2023-11-18T06:35:23.130Z,85.70
2023-11-18T06:37:52.086Z,85.79
2023-11-18T06:40:23.547Z,85.83
2023-11-18T06:42:52.459Z,85.86
2023-11-18T06:45:23.734Z,85.93
2023-11-18T06:47:52.634Z,86.00
2023-11-18T06:50:25.933Z,86.08
2023-11-18T06:52:57.238Z,86.10
2023-11-18T06:55:28.398Z,86.13
2023-11-18T06:57:58.035Z,86.16
2023-11-18T07:00:29.617Z,86.23
2023-11-18T07:02:59.224Z,86.28
2023-11-18T07:05:28.116Z,86.33
2023-11-18T07:07:57.427Z,86.37
2023-11-18T07:10:27.145Z,86.37
2023-11-18T07:12:56.384Z,86.33
2023-11-18T07:15:25.307Z,86.31
2023-11-18T07:17:56.871Z,86.28
2023-11-18T07:20:25.927Z,86.25
2023-11-18T07:22:55.763Z,86.28
2023-11-18T07:25:24.542Z,86.28
2023-11-18T07:27:53.306Z,86.13
2023-11-18T07:30:22.184Z,86.08
2023-11-18T07:32:52.564Z,86.02
2023-11-18T07:35:21.326Z,86.00
2023-11-18T07:37:50.571Z,85.92
2023-11-18T07:40:23.779Z,85.85
2023-11-18T07:42:52.443Z,85.86
2023-11-18T07:45:21.256Z,85.86
2023-11-18T07:47:52.495Z,85.85
2023-11-18T07:50:22.811Z,85.83
2023-11-18T07:52:52.244Z,85.87
2023-11-18T07:55:21.113Z,85.87
2023-11-18T07:57:49.791Z,85.87
2023-11-18T08:00:19.322Z,85.85
2023-11-18T08:02:48.463Z,85.82
2023-11-18T08:05:18.585Z,85.84
2023-11-18T08:07:47.256Z,85.79
2023-11-18T08:10:20.847Z,85.74
2023-11-18T08:12:49.991Z,85.70
2023-11-18T08:15:20.358Z,85.53
2023-11-18T08:17:50.746Z,85.55
2023-11-18T08:20:25.425Z,85.58
2023-11-18T08:22:54.729Z,85.50
2023-11-18T08:25:23.830Z,85.46
2023-11-18T08:27:53.014Z,85.46
2023-11-18T08:30:22.422Z,85.43
2023-11-18T08:32:51.201Z,85.32
2023-11-18T08:35:20.294Z,85.30
2023-11-18T08:37:49.732Z,85.36
2023-11-18T08:40:27.418Z,85.35
2023-11-18T08:42:57.910Z,85.36
2023-11-18T08:45:31.345Z,85.33
2023-11-18T08:48:09.857Z,85.37
2023-11-18T08:50:42.460Z,85.40
2023-11-18T08:53:14.571Z,85.34
2023-11-18T08:55:53.329Z,85.33
2023-11-18T08:58:25.429Z,85.39
2023-11-18T09:01:15.964Z,85.39
2023-11-18T09:03:50.489Z,85.38
2023-11-18T09:06:27.801Z,85.36
2023-11-18T09:08:59.661Z,85.37
2023-11-18T09:11:34.352Z,85.39
2023-11-18T09:14:05.721Z,85.41
2023-11-18T09:16:40.084Z,85.35
2023-11-18T09:19:09.577Z,85.26
2023-11-18T09:21:38.607Z,85.15
2023-11-18T09:24:13.478Z,85.03
2023-11-18T09:26:45.670Z,84.97
2023-11-18T09:29:16.155Z,84.81
2023-11-18T09:31:51.604Z,84.76
2023-11-18T09:34:28.770Z,84.58
2023-11-18T09:36:57.753Z,84.66
2023-11-18T09:39:39.554Z,84.63
2023-11-18T09:42:13.095Z,84.36
2023-11-18T09:44:42.491Z,84.47
2023-11-18T09:47:17.877Z,84.44
2023-11-18T09:49:58.002Z,84.34
2023-11-18T09:52:28.329Z,84.25
2023-11-18T09:55:21.450Z,84.30
2023-11-18T09:58:01.454Z,84.14
2023-11-18T10:00:35.021Z,83.98
2023-11-18T10:03:04.872Z,84.02
2023-11-18T10:05:35.393Z,84.04
2023-11-18T10:08:07.411Z,84.05
2023-11-18T10:10:47.238Z,83.86
2023-11-18T10:13:26.033Z,83.99
2023-11-18T10:15:55.135Z,83.85
2023-11-18T10:18:25.189Z,83.87
2023-11-18T10:20:58.630Z,83.94
2023-11-18T10:23:29.621Z,83.94
2023-11-18T10:26:02.799Z,83.89
2023-11-18T10:28:39.277Z,83.77
2023-11-18T10:31:11.281Z,83.71
2023-11-18T10:33:45.096Z,83.52
2023-11-18T10:36:25.798Z,83.79
2023-11-18T10:38:57.514Z,83.49
2023-11-18T10:41:26.907Z,82.24
2023-11-18T10:44:16.239Z,82.71
2023-11-18T10:46:56.228Z,82.71
2023-11-18T10:49:25.968Z,82.65
2023-11-18T10:51:56.690Z,82.70
2023-11-18T10:54:27.927Z,81.97
2023-11-18T10:56:59.995Z,82.48
2023-11-18T10:59:28.808Z,82.14
2023-11-18T11:01:59.554Z,82.30
2023-11-18T11:04:44.236Z,81.46
2023-11-18T11:07:15.854Z,81.59
2023-11-18T11:09:47.579Z,81.48
2023-11-18T11:12:19.464Z,81.51
2023-11-18T11:15:01.499Z,81.71
2023-11-18T11:17:32.570Z,81.32
2023-11-18T11:20:19.374Z,80.46
2023-11-18T11:23:12.596Z,80.32
2023-11-18T11:26:36.398Z,80.73
2023-11-18T11:29:35.961Z,80.36
2023-11-18T11:32:29.675Z,79.84
2023-11-18T11:35:09.848Z,79.86
2023-11-18T11:37:39.574Z,79.50
2023-11-18T11:40:11.978Z,79.53
2023-11-18T11:42:44.256Z,79.12
2023-11-18T11:45:21.706Z,79.54
2023-11-18T11:47:53.231Z,79.19
2023-11-18T11:50:33.954Z,78.70
2023-11-18T11:53:18.395Z,78.54
2023-11-18T11:56:06.615Z,78.86
2023-11-18T11:58:40.196Z,78.71
2023-11-18T12:01:26.602Z,78.45
2023-11-18T12:03:59.678Z,78.37
2023-11-18T12:06:29.493Z,78.91
2023-11-18T12:08:58.557Z,78.55
2023-11-18T12:11:31.134Z,77.55
2023-11-18T12:14:14.786Z,78.38
2023-11-18T12:17:22.812Z,78.66
2023-11-18T12:19:57.938Z,78.70
2023-11-18T12:22:36.403Z,78.28
2023-11-18T12:25:07.787Z,78.24
2023-11-18T12:27:42.535Z,78.17
2023-11-18T12:30:17.285Z,78.38
2023-11-18T12:33:02.693Z,78.14
2023-11-18T12:35:45.845Z,78.64
2023-11-18T12:38:58.232Z,78.42
2023-11-18T12:41:39.826Z,78.57
2023-11-18T12:44:20.710Z,78.28
2023-11-18T12:47:16.411Z,77.81
2023-11-18T12:49:51.526Z,77.58
2023-11-18T12:52:20.720Z,77.54
2023-11-18T12:54:57.793Z,77.90
2023-11-18T12:57:33.268Z,77.57
2023-11-18T13:00:02.539Z,77.29
2023-11-18T13:02:34.081Z,77.66
2023-11-18T13:05:10.942Z,77.98
2023-11-18T13:07:41.359Z,77.34
2023-11-18T13:10:10.910Z,77.67
2023-11-18T13:12:40.769Z,77.91
2023-11-18T13:15:11.177Z,77.26
2023-11-18T13:17:42.402Z,77.51
2023-11-18T13:20:16.291Z,77.77
2023-11-18T13:22:48.304Z,77.98
2023-11-18T13:25:19.018Z,77.35
2023-11-18T13:27:48.146Z,78.09
2023-11-18T13:30:19.033Z,77.91
2023-11-18T13:32:51.085Z,77.55
2023-11-18T13:35:21.809Z,77.96
2023-11-18T13:37:52.279Z,77.45
2023-11-18T13:40:21.246Z,77.51
2023-11-18T13:42:50.187Z,77.72
2023-11-18T13:45:30.978Z,77.36
2023-11-18T13:48:06.501Z,76.83
2023-11-18T13:50:39.174Z,77.56
2023-11-18T13:53:08.524Z,77.14
2023-11-18T13:55:40.366Z,76.55
2023-11-18T13:58:12.128Z,76.62
2023-11-18T14:00:42.328Z,77.16
2023-11-18T14:03:13.676Z,76.71
2023-11-18T14:05:48.391Z,76.03
2023-11-18T14:08:21.375Z,75.91
2023-11-18T14:11:02.162Z,76.11
2023-11-18T14:13:36.379Z,76.24
2023-11-18T14:16:11.259Z,76.69
2023-11-18T14:18:43.452Z,75.89
2023-11-18T14:21:15.682Z,75.63
2023-11-18T14:23:44.609Z,75.50
2023-11-18T14:26:13.753Z,76.00
2023-11-18T14:28:44.178Z,76.48
2023-11-18T14:31:12.919Z,75.91
2023-11-18T14:33:41.718Z,75.96
2023-11-18T14:36:11.261Z,75.85
2023-11-18T14:38:40.113Z,76.34
2023-11-18T14:41:09.477Z,76.89
2023-11-18T14:43:38.564Z,77.33
2023-11-18T14:46:09.583Z,77.63
2023-11-18T14:48:39.003Z,77.92
2023-11-18T14:51:08.805Z,78.17
2023-11-18T14:53:39.100Z,78.37
2023-11-18T14:56:08.780Z,78.57
2023-11-18T14:58:37.802Z,78.83
2023-11-18T15:01:10.315Z,79.11
2023-11-18T15:03:39.146Z,79.17
2023-11-18T15:06:11.759Z,79.48
2023-11-18T15:08:45.917Z,79.55
2023-11-18T15:11:24.638Z,79.81
